sensor_id;sensor_type;location;lat;lon;timestamp;pressure;altitude;pressure_sealevel;temperature;humidity
42411;BME280;28056;51.112;0.984;2023-11-21T00:00:25;100341.42;;;9.55;100.00
42411;BME280;28056;51.112;0.984;2023-11-21T00:02:52;100345.56;;;9.53;100.00
42411;BME280;28056;51.112;0.984;2023-11-21T00:05:20;100349.24;;;9.74;100.00
42411;BME280;28056;51.112;0.984;2023-11-21T00:07:48;100352.60;;;9.53;100.00
42411;BME280;28056;51.112;0.984;2023-11-21T00:10:15;100352.53;;;9.91;100.00
42411;BME280;28056;51.112;0.984;2023-11-21T00:12:43;100353.40;;;9.46;100.00
42411;BME280;28056;51.112;0.984;2023-11-21T00:15:11;100354.72;;;9.36;100.00
42411;BME280;28056;51.112;0.984;2023-11-21T00:17:38;100358.18;;;9.49;100.00
42411;BME280;28056;51.112;0.984;2023-11-21T00:20:06;100361.76;;;9.66;100.00
42411;BME280;28056;51.112;0.984;2023-11-21T00:22:34;100356.88;;;9.15;100.00
42411;BME280;28056;51.112;0.984;2023-11-21T00:25:02;100360.03;;;9.14;100.00
42411;BME280;28056;51.112;0.984;2023-11-21T00:27:30;100362.16;;;9.36;100.00
42411;BME280;28056;51.112;0.984;2023-11-21T00:29:58;100361.33;;;9.68;100.00
42411;BME280;28056;51.112;0.984;2023-11-21T00:32:25;100359.41;;;9.09;100.00
42411;BME280;28056;51.112;0.984;2023-11-21T00:34:52;100358.76;;;9.50;100.00
42411;BME280;28056;51.112;0.984;2023-11-21T00:37:19;100358.96;;;9.31;100.00
42411;BME280;28056;51.112;0.984;2023-11-21T00:39:46;100356.55;;;9.27;100.00
42411;BME280;28056;51.112;0.984;2023-11-21T00:42:13;100353.47;;;9.15;100.00
42411;BME280;28056;51.112;0.984;2023-11-21T00:44:41;100362.61;;;9.05;100.00
42411;BME280;28056;51.112;0.984;2023-11-21T00:47:08;100370.34;;;8.95;100.00
42411;BME280;28056;51.112;0.984;2023-11-21T00:49:35;100363.88;;;8.37;100.00
42411;BME280;28056;51.112;0.984;2023-11-21T00:52:02;100361.54;;;8.42;100.00
42411;BME280;28056;51.112;0.984;2023-11-21T00:54:30;100362.43;;;8.40;100.00
42411;BME280;28056;51.112;0.984;2023-11-21T00:56:57;100363.38;;;8.96;100.00
42411;BME280;28056;51.112;0.984;2023-11-21T00:59:25;100364.31;;;8.64;100.00
42411;BME280;28056;51.112;0.984;2023-11-21T01:04:52;100371.52;;;8.22;100.00
42411;BME280;28056;51.112;0.984;2023-11-21T01:07:19;100370.05;;;8.51;100.00
42411;BME280;28056;51.112;0.984;2023-11-21T01:09:47;100372.83;;;8.75;100.00
42411;BME280;28056;51.112;0.984;2023-11-21T01:12:15;100372.36;;;8.98;100.00
42411;BME280;28056;51.112;0.984;2023-11-21T01:14:42;100376.25;;;9.04;100.00
42411;BME280;28056;51.112;0.984;2023-11-21T01:17:09;100379.05;;;8.87;100.00
42411;BME280;28056;51.112;0.984;2023-11-21T01:19:37;100385.77;;;8.96;100.00
42411;BME280;28056;51.112;0.984;2023-11-21T01:22:04;100394.58;;;8.73;100.00
42411;BME280;28056;51.112;0.984;2023-11-21T01:24:32;100389.20;;;9.54;100.00
42411;BME280;28056;51.112;0.984;2023-11-21T01:27:00;100392.39;;;9.31;100.00
42411;BME280;28056;51.112;0.984;2023-11-21T01:29:27;100399.32;;;8.78;100.00
42411;BME280;28056;51.112;0.984;2023-11-21T01:31:54;100395.30;;;9.46;100.00
42411;BME280;28056;51.112;0.984;2023-11-21T01:34:21;100400.58;;;9.47;100.00
42411;BME280;28056;51.112;0.984;2023-11-21T01:36:49;100408.91;;;9.71;100.00
42411;BME280;28056;51.112;0.984;2023-11-21T01:39:17;100415.42;;;9.88;100.00
42411;BME280;28056;51.112;0.984;2023-11-21T01:41:44;100417.94;;;9.84;100.00
42411;BME280;28056;51.112;0.984;2023-11-21T01:44:11;100420.76;;;9.58;100.00
42411;BME280;28056;51.112;0.984;2023-11-21T01:46:39;100427.51;;;9.69;100.00
42411;BME280;28056;51.112;0.984;2023-11-21T01:49:07;100430.74;;;10.18;100.00
42411;BME280;28056;51.112;0.984;2023-11-21T01:51:36;100430.65;;;9.87;100.00
42411;BME280;28056;51.112;0.984;2023-11-21T01:54:05;100430.04;;;9.90;100.00
42411;BME280;28056;51.112;0.984;2023-11-21T01:56:32;100431.23;;;9.97;100.00
42411;BME280;28056;51.112;0.984;2023-11-21T01:59:00;100438.00;;;9.87;100.00
42411;BME280;28056;51.112;0.984;2023-11-21T02:01:28;100446.09;;;9.40;100.00
42411;BME280;28056;51.112;0.984;2023-11-21T02:03:55;100443.91;;;9.46;100.00
42411;BME280;28056;51.112;0.984;2023-11-21T02:06:23;100445.86;;;9.39;100.00
42411;BME280;28056;51.112;0.984;2023-11-21T02:08:51;100450.39;;;9.16;100.00
42411;BME280;28056;51.112;0.984;2023-11-21T02:11:19;100452.79;;;9.95;100.00
42411;BME280;28056;51.112;0.984;2023-11-21T02:13:46;100449.32;;;9.58;100.00
42411;BME280;28056;51.112;0.984;2023-11-21T02:16:13;100456.82;;;10.09;100.00
42411;BME280;28056;51.112;0.984;2023-11-21T02:18:41;100461.37;;;9.85;100.00
42411;BME280;28056;51.112;0.984;2023-11-21T02:21:08;100461.15;;;10.07;100.00
42411;BME280;28056;51.112;0.984;2023-11-21T02:23:35;100462.47;;;10.11;100.00
42411;BME280;28056;51.112;0.984;2023-11-21T02:26:02;100467.79;;;9.39;100.00
42411;BME280;28056;51.112;0.984;2023-11-21T02:28:30;100467.41;;;9.65;100.00
42411;BME280;28056;51.112;0.984;2023-11-21T02:30:58;100470.94;;;9.89;100.00
42411;BME280;28056;51.112;0.984;2023-11-21T02:33:25;100473.31;;;9.69;100.00
42411;BME280;28056;51.112;0.984;2023-11-21T02:35:52;100476.52;;;9.58;100.00
42411;BME280;28056;51.112;0.984;2023-11-21T02:38:20;100475.34;;;9.33;100.00
42411;BME280;28056;51.112;0.984;2023-11-21T02:40:48;100476.59;;;8.99;100.00
42411;BME280;28056;51.112;0.984;2023-11-21T02:43:16;100478.05;;;8.93;100.00
42411;BME280;28056;51.112;0.984;2023-11-21T02:45:44;100483.66;;;9.21;100.00
42411;BME280;28056;51.112;0.984;2023-11-21T02:48:11;100485.29;;;9.05;100.00
42411;BME280;28056;51.112;0.984;2023-11-21T02:50:39;100484.01;;;9.27;100.00
42411;BME280;28056;51.112;0.984;2023-11-21T02:53:06;100486.87;;;9.28;100.00
42411;BME280;28056;51.112;0.984;2023-11-21T02:55:34;100492.31;;;9.06;100.00
42411;BME280;28056;51.112;0.984;2023-11-21T02:58:01;100491.05;;;9.44;100.00
42411;BME280;28056;51.112;0.984;2023-11-21T03:00:29;100495.40;;;9.29;100.00
42411;BME280;28056;51.112;0.984;2023-11-21T03:02:57;100493.68;;;9.57;100.00
42411;BME280;28056;51.112;0.984;2023-11-21T03:05:25;100494.07;;;8.99;100.00
42411;BME280;28056;51.112;0.984;2023-11-21T03:07:52;100498.76;;;9.20;100.00
42411;BME280;28056;51.112;0.984;2023-11-21T03:10:19;100501.04;;;9.12;100.00
42411;BME280;28056;51.112;0.984;2023-11-21T03:12:46;100500.18;;;9.32;100.00
42411;BME280;28056;51.112;0.984;2023-11-21T03:15:14;100502.58;;;9.65;100.00
42411;BME280;28056;51.112;0.984;2023-11-21T03:17:41;100502.98;;;9.45;100.00
42411;BME280;28056;51.112;0.984;2023-11-21T03:20:10;100506.03;;;9.30;100.00
42411;BME280;28056;51.112;0.984;2023-11-21T03:22:38;100507.32;;;9.44;100.00
42411;BME280;28056;51.112;0.984;2023-11-21T03:25:05;100511.94;;;9.28;100.00
42411;BME280;28056;51.112;0.984;2023-11-21T03:27:33;100513.27;;;8.88;100.00
42411;BME280;28056;51.112;0.984;2023-11-21T03:30:01;100514.99;;;9.07;100.00
42411;BME280;28056;51.112;0.984;2023-11-21T03:32:29;100520.41;;;8.98;100.00
42411;BME280;28056;51.112;0.984;2023-11-21T03:34:57;100521.65;;;9.22;100.00
42411;BME280;28056;51.112;0.984;2023-11-21T03:37:24;100524.42;;;8.85;100.00
42411;BME280;28056;51.112;0.984;2023-11-21T03:39:52;100523.67;;;9.13;100.00
42411;BME280;28056;51.112;0.984;2023-11-21T03:42:19;100530.23;;;9.21;100.00
42411;BME280;28056;51.112;0.984;2023-11-21T03:44:46;100541.18;;;9.10;100.00
42411;BME280;28056;51.112;0.984;2023-11-21T03:47:14;100538.61;;;8.86;100.00
42411;BME280;28056;51.112;0.984;2023-11-21T03:49:41;100546.71;;;8.49;100.00
42411;BME280;28056;51.112;0.984;2023-11-21T03:52:08;100552.30;;;8.50;100.00
42411;BME280;28056;51.112;0.984;2023-11-21T03:54:35;100558.10;;;8.47;100.00
42411;BME280;28056;51.112;0.984;2023-11-21T03:57:02;100566.57;;;8.94;100.00
42411;BME280;28056;51.112;0.984;2023-11-21T03:59:30;100565.29;;;8.62;100.00
42411;BME280;28056;51.112;0.984;2023-11-21T04:01:58;100570.22;;;8.99;100.00
42411;BME280;28056;51.112;0.984;2023-11-21T04:04:25;100575.71;;;9.29;100.00
42411;BME280;28056;51.112;0.984;2023-11-21T04:06:53;100579.51;;;9.09;100.00
42411;BME280;28056;51.112;0.984;2023-11-21T04:09:20;100579.47;;;9.78;100.00
42411;BME280;28056;51.112;0.984;2023-11-21T04:11:47;100576.98;;;10.01;100.00
42411;BME280;28056;51.112;0.984;2023-11-21T04:14:14;100572.11;;;9.21;100.00
42411;BME280;28056;51.112;0.984;2023-11-21T04:16:42;100572.65;;;9.37;100.00
42411;BME280;28056;51.112;0.984;2023-11-21T04:19:10;100580.60;;;9.80;100.00
42411;BME280;28056;51.112;0.984;2023-11-21T04:21:38;100581.54;;;9.49;100.00
42411;BME280;28056;51.112;0.984;2023-11-21T04:24:06;100585.10;;;9.44;100.00
42411;BME280;28056;51.112;0.984;2023-11-21T04:26:34;100592.40;;;8.54;100.00
42411;BME280;28056;51.112;0.984;2023-11-21T04:29:01;100600.24;;;9.11;100.00
42411;BME280;28056;51.112;0.984;2023-11-21T04:31:29;100601.67;;;9.25;100.00
42411;BME280;28056;51.112;0.984;2023-11-21T04:33:57;100602.90;;;8.51;100.00
42411;BME280;28056;51.112;0.984;2023-11-21T04:36:24;100607.21;;;9.67;100.00
42411;BME280;28056;51.112;0.984;2023-11-21T04:38:52;100608.38;;;9.24;100.00
42411;BME280;28056;51.112;0.984;2023-11-21T04:41:18;100616.90;;;8.92;100.00
42411;BME280;28056;51.112;0.984;2023-11-21T04:43:45;100624.56;;;9.01;100.00
42411;BME280;28056;51.112;0.984;2023-11-21T04:46:12;100628.66;;;9.16;100.00
42411;BME280;28056;51.112;0.984;2023-11-21T04:48:40;100626.52;;;9.53;100.00
42411;BME280;28056;51.112;0.984;2023-11-21T04:51:08;100630.93;;;9.16;100.00
42411;BME280;28056;51.112;0.984;2023-11-21T04:53:35;100632.54;;;9.54;100.00
42411;BME280;28056;51.112;0.984;2023-11-21T04:56:02;100636.25;;;8.90;100.00
42411;BME280;28056;51.112;0.984;2023-11-21T04:58:30;100634.50;;;9.53;100.00
42411;BME280;28056;51.112;0.984;2023-11-21T05:00:57;100637.46;;;9.51;100.00
42411;BME280;28056;51.112;0.984;2023-11-21T05:03:25;100638.37;;;9.62;100.00
42411;BME280;28056;51.112;0.984;2023-11-21T05:05:52;100641.65;;;9.23;100.00
42411;BME280;28056;51.112;0.984;2023-11-21T05:08:19;100639.16;;;8.80;100.00
42411;BME280;28056;51.112;0.984;2023-11-21T05:10:46;100646.60;;;9.46;100.00
42411;BME280;28056;51.112;0.984;2023-11-21T05:13:13;100646.72;;;9.40;100.00
42411;BME280;28056;51.112;0.984;2023-11-21T05:15:40;100647.24;;;9.22;100.00
42411;BME280;28056;51.112;0.984;2023-11-21T05:18:08;100654.44;;;9.59;100.00
42411;BME280;28056;51.112;0.984;2023-11-21T05:20:36;100655.73;;;9.30;100.00
42411;BME280;28056;51.112;0.984;2023-11-21T05:23:04;100655.68;;;9.42;100.00
42411;BME280;28056;51.112;0.984;2023-11-21T05:25:32;100655.80;;;9.01;100.00
42411;BME280;28056;51.112;0.984;2023-11-21T05:27:59;100667.05;;;8.48;100.00
42411;BME280;28056;51.112;0.984;2023-11-21T05:30:26;100668.37;;;9.03;100.00
42411;BME280;28056;51.112;0.984;2023-11-21T05:32:54;100672.67;;;8.57;100.00
42411;BME280;28056;51.112;0.984;2023-11-21T05:35:21;100677.67;;;8.53;100.00
42411;BME280;28056;51.112;0.984;2023-11-21T05:37:48;100679.13;;;8.59;100.00
42411;BME280;28056;51.112;0.984;2023-11-21T05:40:15;100689.77;;;8.46;100.00
42411;BME280;28056;51.112;0.984;2023-11-21T05:42:43;100691.46;;;8.49;100.00
42411;BME280;28056;51.112;0.984;2023-11-21T05:45:11;100694.33;;;8.02;100.00
42411;BME280;28056;51.112;0.984;2023-11-21T05:47:40;100691.27;;;8.77;100.00
42411;BME280;28056;51.112;0.984;2023-11-21T05:50:08;100693.25;;;8.40;100.00
42411;BME280;28056;51.112;0.984;2023-11-21T05:52:35;100699.06;;;8.59;100.00
42411;BME280;28056;51.112;0.984;2023-11-21T05:55:03;100706.92;;;8.76;100.00
42411;BME280;28056;51.112;0.984;2023-11-21T05:57:31;100708.31;;;8.04;100.00
42411;BME280;28056;51.112;0.984;2023-11-21T05:59:57;100716.09;;;8.12;100.00
42411;BME280;28056;51.112;0.984;2023-11-21T06:02:24;100719.13;;;8.94;100.00
42411;BME280;28056;51.112;0.984;2023-11-21T06:04:51;100720.48;;;8.36;100.00
42411;BME280;28056;51.112;0.984;2023-11-21T06:07:18;100731.30;;;8.66;100.00
42411;BME280;28056;51.112;0.984;2023-11-21T06:09:45;100730.03;;;8.25;100.00
42411;BME280;28056;51.112;0.984;2023-11-21T06:12:12;100739.72;;;8.50;100.00
42411;BME280;28056;51.112;0.984;2023-11-21T06:14:39;100742.77;;;8.24;100.00
42411;BME280;28056;51.112;0.984;2023-11-21T06:17:06;100740.29;;;8.26;100.00
42411;BME280;28056;51.112;0.984;2023-11-21T06:19:33;100739.45;;;7.88;100.00
42411;BME280;28056;51.112;0.984;2023-11-21T06:22:00;100740.35;;;8.54;100.00
42411;BME280;28056;51.112;0.984;2023-11-21T06:24:27;100744.84;;;8.19;100.00
42411;BME280;28056;51.112;0.984;2023-11-21T06:26:55;100748.88;;;8.53;100.00
42411;BME280;28056;51.112;0.984;2023-11-21T06:29:22;100748.35;;;8.70;100.00
42411;BME280;28056;51.112;0.984;2023-11-21T06:31:49;100748.63;;;8.38;100.00
42411;BME280;28056;51.112;0.984;2023-11-21T06:34:17;100755.94;;;8.87;100.00
42411;BME280;28056;51.112;0.984;2023-11-21T06:36:44;100760.10;;;8.85;100.00
42411;BME280;28056;51.112;0.984;2023-11-21T06:39:11;100760.34;;;9.04;100.00
42411;BME280;28056;51.112;0.984;2023-11-21T06:41:38;100757.68;;;9.34;100.00
42411;BME280;28056;51.112;0.984;2023-11-21T06:44:05;100762.10;;;8.81;100.00
42411;BME280;28056;51.112;0.984;2023-11-21T06:46:33;100760.44;;;9.45;100.00
42411;BME280;28056;51.112;0.984;2023-11-21T06:49:01;100757.69;;;8.92;100.00
42411;BME280;28056;51.112;0.984;2023-11-21T06:51:29;100772.33;;;9.32;100.00
42411;BME280;28056;51.112;0.984;2023-11-21T06:53:56;100768.22;;;7.56;100.00
42411;BME280;28056;51.112;0.984;2023-11-21T06:56:23;100776.28;;;8.24;100.00
42411;BME280;28056;51.112;0.984;2023-11-21T06:58:50;100779.51;;;7.63;100.00
42411;BME280;28056;51.112;0.984;2023-11-21T07:01:18;100785.53;;;7.60;100.00
42411;BME280;28056;51.112;0.984;2023-11-21T07:03:45;100792.23;;;6.77;100.00
42411;BME280;28056;51.112;0.984;2023-11-21T07:06:13;100797.81;;;7.02;100.00
42411;BME280;28056;51.112;0.984;2023-11-21T07:08:40;100794.89;;;6.91;100.00
42411;BME280;28056;51.112;0.984;2023-11-21T07:11:07;100803.13;;;6.84;100.00
42411;BME280;28056;51.112;0.984;2023-11-21T07:13:34;100805.18;;;6.85;100.00
42411;BME280;28056;51.112;0.984;2023-11-21T07:16:01;100807.12;;;6.75;100.00
42411;BME280;28056;51.112;0.984;2023-11-21T07:18:29;100822.16;;;6.72;100.00
42411;BME280;28056;51.112;0.984;2023-11-21T07:20:56;100827.25;;;7.01;100.00
42411;BME280;28056;51.112;0.984;2023-11-21T07:23:23;100834.15;;;6.69;100.00
42411;BME280;28056;51.112;0.984;2023-11-21T07:25:50;100855.93;;;6.87;100.00
42411;BME280;28056;51.112;0.984;2023-11-21T07:28:17;100858.74;;;6.57;100.00
42411;BME280;28056;51.112;0.984;2023-11-21T07:30:44;100860.68;;;6.08;100.00
42411;BME280;28056;51.112;0.984;2023-11-21T07:33:11;100865.65;;;6.53;100.00
42411;BME280;28056;51.112;0.984;2023-11-21T07:35:38;100868.43;;;6.82;100.00
42411;BME280;28056;51.112;0.984;2023-11-21T07:38:05;100870.75;;;6.63;100.00
42411;BME280;28056;51.112;0.984;2023-11-21T07:40:32;100870.47;;;7.31;100.00
42411;BME280;28056;51.112;0.984;2023-11-21T07:42:59;100884.12;;;7.27;100.00
42411;BME280;28056;51.112;0.984;2023-11-21T07:45:27;100884.07;;;7.75;100.00
42411;BME280;28056;51.112;0.984;2023-11-21T07:47:54;100883.62;;;7.09;100.00
42411;BME280;28056;51.112;0.984;2023-11-21T07:50:22;100889.33;;;6.34;100.00
42411;BME280;28056;51.112;0.984;2023-11-21T07:52:49;100894.46;;;6.82;100.00
42411;BME280;28056;51.112;0.984;2023-11-21T07:55:16;100901.49;;;6.38;100.00
42411;BME280;28056;51.112;0.984;2023-11-21T07:57:43;100901.84;;;6.09;100.00
42411;BME280;28056;51.112;0.984;2023-11-21T08:00:11;100911.79;;;6.34;100.00
42411;BME280;28056;51.112;0.984;2023-11-21T08:02:39;100916.89;;;6.48;100.00
42411;BME280;28056;51.112;0.984;2023-11-21T08:05:07;100921.44;;;6.65;100.00
42411;BME280;28056;51.112;0.984;2023-11-21T08:07:35;100921.28;;;6.19;100.00
42411;BME280;28056;51.112;0.984;2023-11-21T08:10:03;100922.04;;;6.20;100.00
42411;BME280;28056;51.112;0.984;2023-11-21T08:12:30;100925.31;;;5.92;100.00
42411;BME280;28056;51.112;0.984;2023-11-21T08:14:58;100928.31;;;6.41;100.00
42411;BME280;28056;51.112;0.984;2023-11-21T08:17:25;100936.47;;;5.91;100.00
42411;BME280;28056;51.112;0.984;2023-11-21T08:19:53;100942.16;;;6.11;100.00
42411;BME280;28056;51.112;0.984;2023-11-21T08:22:20;100944.45;;;6.39;100.00
42411;BME280;28056;51.112;0.984;2023-11-21T08:24:47;100950.38;;;5.75;100.00
42411;BME280;28056;51.112;0.984;2023-11-21T08:27:14;100953.36;;;5.54;100.00
42411;BME280;28056;51.112;0.984;2023-11-21T08:29:42;100959.14;;;5.71;100.00
42411;BME280;28056;51.112;0.984;2023-11-21T08:32:09;100962.37;;;5.89;100.00
42411;BME280;28056;51.112;0.984;2023-11-21T08:34:36;100967.70;;;6.11;100.00
42411;BME280;28056;51.112;0.984;2023-11-21T08:37:04;100967.86;;;6.10;100.00
42411;BME280;28056;51.112;0.984;2023-11-21T08:39:31;100976.90;;;5.81;100.00
42411;BME280;28056;51.112;0.984;2023-11-21T08:41:58;100978.45;;;6.02;100.00
42411;BME280;28056;51.112;0.984;2023-11-21T08:44:25;100984.64;;;6.09;100.00
42411;BME280;28056;51.112;0.984;2023-11-21T08:46:52;100987.46;;;6.50;100.00
42411;BME280;28056;51.112;0.984;2023-11-21T08:49:19;100978.57;;;5.57;100.00
42411;BME280;28056;51.112;0.984;2023-11-21T08:51:45;100989.24;;;5.91;100.00
42411;BME280;28056;51.112;0.984;2023-11-21T08:54:12;100983.06;;;5.66;100.00
42411;BME280;28056;51.112;0.984;2023-11-21T08:56:39;100988.97;;;5.68;100.00
42411;BME280;28056;51.112;0.984;2023-11-21T08:59:06;100993.91;;;5.85;100.00
42411;BME280;28056;51.112;0.984;2023-11-21T09:01:34;100998.78;;;6.23;100.00
42411;BME280;28056;51.112;0.984;2023-11-21T09:04:01;100996.58;;;5.95;100.00
42411;BME280;28056;51.112;0.984;2023-11-21T09:06:29;101002.00;;;6.28;100.00
42411;BME280;28056;51.112;0.984;2023-11-21T09:08:57;101003.54;;;6.09;100.00
42411;BME280;28056;51.112;0.984;2023-11-21T09:11:25;101003.52;;;6.11;100.00
42411;BME280;28056;51.112;0.984;2023-11-21T09:13:52;101008.80;;;5.74;100.00
42411;BME280;28056;51.112;0.984;2023-11-21T09:16:20;101016.13;;;5.73;100.00
42411;BME280;28056;51.112;0.984;2023-11-21T09:18:48;101016.87;;;5.84;100.00
42411;BME280;28056;51.112;0.984;2023-11-21T09:21:16;101024.15;;;6.07;100.00
42411;BME280;28056;51.112;0.984;2023-11-21T09:23:44;101027.66;;;6.04;100.00
42411;BME280;28056;51.112;0.984;2023-11-21T09:26:11;101025.21;;;5.57;100.00
42411;BME280;28056;51.112;0.984;2023-11-21T09:28:39;101037.55;;;5.86;100.00
42411;BME280;28056;51.112;0.984;2023-11-21T09:31:06;101039.22;;;6.01;100.00
42411;BME280;28056;51.112;0.984;2023-11-21T09:33:33;101034.00;;;5.96;100.00
42411;BME280;28056;51.112;0.984;2023-11-21T09:36:01;101044.24;;;6.24;100.00
42411;BME280;28056;51.112;0.984;2023-11-21T09:38:29;101048.99;;;6.06;100.00
42411;BME280;28056;51.112;0.984;2023-11-21T09:40:57;101049.77;;;5.58;100.00
42411;BME280;28056;51.112;0.984;2023-11-21T09:43:25;101055.39;;;6.08;100.00
42411;BME280;28056;51.112;0.984;2023-11-21T09:45:56;101058.38;;;5.72;100.00
42411;BME280;28056;51.112;0.984;2023-11-21T09:48:26;101060.11;;;5.44;100.00
42411;BME280;28056;51.112;0.984;2023-11-21T09:50:54;101065.05;;;5.63;100.00
42411;BME280;28056;51.112;0.984;2023-11-21T09:53:22;101071.39;;;6.16;100.00
42411;BME280;28056;51.112;0.984;2023-11-21T09:55:51;101075.75;;;5.92;100.00
42411;BME280;28056;51.112;0.984;2023-11-21T09:58:18;101073.86;;;6.09;100.00
42411;BME280;28056;51.112;0.984;2023-11-21T10:00:48;101081.11;;;5.89;100.00
42411;BME280;28056;51.112;0.984;2023-11-21T10:03:16;101092.24;;;6.11;100.00
42411;BME280;28056;51.112;0.984;2023-11-21T10:05:45;101094.53;;;5.87;100.00
42411;BME280;28056;51.112;0.984;2023-11-21T10:08:13;101097.89;;;6.04;100.00
42411;BME280;28056;51.112;0.984;2023-11-21T10:10:43;101109.81;;;6.17;100.00
42411;BME280;28056;51.112;0.984;2023-11-21T10:13:12;101107.25;;;5.68;100.00
42411;BME280;28056;51.112;0.984;2023-11-21T10:15:41;101103.13;;;5.58;100.00
42411;BME280;28056;51.112;0.984;2023-11-21T10:18:09;101107.15;;;5.92;100.00
42411;BME280;28056;51.112;0.984;2023-11-21T10:20:36;101105.11;;;6.03;100.00
42411;BME280;28056;51.112;0.984;2023-11-21T10:23:03;101105.74;;;6.28;100.00
42411;BME280;28056;51.112;0.984;2023-11-21T10:25:30;101105.33;;;5.87;100.00
42411;BME280;28056;51.112;0.984;2023-11-21T10:27:59;101111.05;;;6.42;100.00
42411;BME280;28056;51.112;0.984;2023-11-21T10:30:31;101114.22;;;6.20;100.00
42411;BME280;28056;51.112;0.984;2023-11-21T10:32:59;101116.40;;;6.28;100.00
42411;BME280;28056;51.112;0.984;2023-11-21T10:35:39;101112.52;;;6.73;100.00
42411;BME280;28056;51.112;0.984;2023-11-21T10:38:06;101116.21;;;6.69;100.00
42411;BME280;28056;51.112;0.984;2023-11-21T10:40:34;101113.73;;;6.51;100.00
42411;BME280;28056;51.112;0.984;2023-11-21T10:43:06;101112.58;;;6.88;100.00
42411;BME280;28056;51.112;0.984;2023-11-21T10:45:34;101110.00;;;6.34;100.00
42411;BME280;28056;51.112;0.984;2023-11-21T10:48:05;101111.07;;;6.60;100.00
42411;BME280;28056;51.112;0.984;2023-11-21T10:50:34;101103.71;;;5.93;100.00
42411;BME280;28056;51.112;0.984;2023-11-21T10:53:02;101112.37;;;6.12;100.00
42411;BME280;28056;51.112;0.984;2023-11-21T10:55:30;101111.38;;;6.29;100.00
42411;BME280;28056;51.112;0.984;2023-11-21T10:58:00;101120.86;;;6.24;100.00
42411;BME280;28056;51.112;0.984;2023-11-21T11:00:28;101126.15;;;6.56;100.00
42411;BME280;28056;51.112;0.984;2023-11-21T11:02:59;101119.63;;;6.01;100.00
42411;BME280;28056;51.112;0.984;2023-11-21T11:05:28;101122.51;;;6.14;100.00
42411;BME280;28056;51.112;0.984;2023-11-21T11:07:59;101122.20;;;6.04;100.00
42411;BME280;28056;51.112;0.984;2023-11-21T11:10:27;101128.28;;;6.31;100.00
42411;BME280;28056;51.112;0.984;2023-11-21T11:12:55;101127.67;;;6.16;100.00
42411;BME280;28056;51.112;0.984;2023-11-21T11:15:23;101133.99;;;6.34;100.00
42411;BME280;28056;51.112;0.984;2023-11-21T11:17:52;101136.36;;;6.55;100.00
42411;BME280;28056;51.112;0.984;2023-11-21T11:20:20;101138.86;;;6.51;100.00
42411;BME280;28056;51.112;0.984;2023-11-21T11:22:59;101135.97;;;6.50;100.00
42411;BME280;28056;51.112;0.984;2023-11-21T11:25:49;101137.74;;;6.71;100.00
42411;BME280;28056;51.112;0.984;2023-11-21T11:28:21;101134.60;;;6.68;100.00
42411;BME280;28056;51.112;0.984;2023-11-21T11:31:04;101141.82;;;6.25;100.00
42411;BME280;28056;51.112;0.984;2023-11-21T11:33:38;101149.09;;;6.25;100.00
42411;BME280;28056;51.112;0.984;2023-11-21T11:36:09;101154.51;;;6.63;100.00
42411;BME280;28056;51.112;0.984;2023-11-21T11:38:37;101151.86;;;6.42;100.00
42411;BME280;28056;51.112;0.984;2023-11-21T11:41:06;101158.70;;;6.54;100.00
42411;BME280;28056;51.112;0.984;2023-11-21T11:43:34;101161.55;;;6.89;100.00
42411;BME280;28056;51.112;0.984;2023-11-21T11:46:03;101164.46;;;6.70;100.00
42411;BME280;28056;51.112;0.984;2023-11-21T11:48:35;101170.11;;;6.67;100.00
42411;BME280;28056;51.112;0.984;2023-11-21T11:51:10;101172.27;;;7.17;100.00
42411;BME280;28056;51.112;0.984;2023-11-21T11:53:40;101173.44;;;7.44;100.00
42411;BME280;28056;51.112;0.984;2023-11-21T11:56:25;101173.83;;;6.98;100.00
42411;BME280;28056;51.112;0.984;2023-11-21T11:58:54;101173.88;;;7.49;100.00
42411;BME280;28056;51.112;0.984;2023-11-21T12:01:24;101171.03;;;7.47;100.00
42411;BME280;28056;51.112;0.984;2023-11-21T12:04:24;101169.91;;;7.23;100.00
42411;BME280;28056;51.112;0.984;2023-11-21T12:06:52;101166.89;;;7.92;100.00
42411;BME280;28056;51.112;0.984;2023-11-21T12:09:20;101165.55;;;7.90;100.00
42411;BME280;28056;51.112;0.984;2023-11-21T12:11:49;101171.11;;;7.31;100.00
42411;BME280;28056;51.112;0.984;2023-11-21T12:14:17;101170.80;;;7.26;100.00
42411;BME280;28056;51.112;0.984;2023-11-21T12:16:44;101165.97;;;7.40;100.00
42411;BME280;28056;51.112;0.984;2023-11-21T12:19:12;101169.57;;;6.76;100.00
42411;BME280;28056;51.112;0.984;2023-11-21T12:21:40;101177.74;;;6.61;100.00
42411;BME280;28056;51.112;0.984;2023-11-21T12:24:08;101182.70;;;6.84;100.00
42411;BME280;28056;51.112;0.984;2023-11-21T12:26:35;101183.31;;;7.17;100.00
42411;BME280;28056;51.112;0.984;2023-11-21T12:29:03;101191.46;;;7.35;100.00
42411;BME280;28056;51.112;0.984;2023-11-21T12:31:31;101189.51;;;7.21;100.00
42411;BME280;28056;51.112;0.984;2023-11-21T12:33:58;101201.55;;;7.42;100.00
42411;BME280;28056;51.112;0.984;2023-11-21T12:36:26;101201.24;;;7.30;100.00
42411;BME280;28056;51.112;0.984;2023-11-21T12:38:54;101203.41;;;7.95;100.00
42411;BME280;28056;51.112;0.984;2023-11-21T12:41:22;101203.60;;;7.85;100.00
42411;BME280;28056;51.112;0.984;2023-11-21T12:43:49;101210.86;;;7.82;100.00
42411;BME280;28056;51.112;0.984;2023-11-21T12:46:17;101217.56;;;8.00;100.00
42411;BME280;28056;51.112;0.984;2023-11-21T12:48:45;101225.80;;;7.62;100.00
42411;BME280;28056;51.112;0.984;2023-11-21T12:51:12;101228.32;;;8.03;100.00
42411;BME280;28056;51.112;0.984;2023-11-21T12:53:40;101232.47;;;8.23;100.00
42411;BME280;28056;51.112;0.984;2023-11-21T12:56:10;101234.41;;;7.45;100.00